sensor_id;sensor_type;location;lat;lon;timestamp;temperature;humidity
360;DHT22;168;48.872;9.226;2023-03-23T00:01:57;15.40;70.50
360;DHT22;168;48.872;9.226;2023-03-23T00:04:27;15.40;70.70
360;DHT22;168;48.872;9.226;2023-03-23T00:06:56;15.40;70.50
360;DHT22;168;48.872;9.226;2023-03-23T00:09:28;15.40;70.70
360;DHT22;168;48.872;9.226;2023-03-23T00:11:58;15.40;70.80
360;DHT22;168;48.872;9.226;2023-03-23T00:14:37;15.40;70.70
360;DHT22;168;48.872;9.226;2023-03-23T00:20:48;15.40;69.60
360;DHT22;168;48.872;9.226;2023-03-23T00:23:16;15.50;69.30
360;DHT22;168;48.872;9.226;2023-03-23T00:25:52;15.50;69.60
360;DHT22;168;48.872;9.226;2023-03-23T00:28:25;15.40;69.70
360;DHT22;168;48.872;9.226;2023-03-23T00:30:57;15.40;69.70
360;DHT22;168;48.872;9.226;2023-03-23T00:33:26;15.30;69.70
360;DHT22;168;48.872;9.226;2023-03-23T00:35:54;15.40;69.80
360;DHT22;168;48.872;9.226;2023-03-23T00:38:23;15.40;69.90
360;DHT22;168;48.872;9.226;2023-03-23T00:40:54;15.50;69.80
360;DHT22;168;48.872;9.226;2023-03-23T00:43:38;15.50;69.60
360;DHT22;168;48.872;9.226;2023-03-23T00:46:29;15.50;69.90
360;DHT22;168;48.872;9.226;2023-03-23T00:49:25;15.60;69.80
360;DHT22;168;48.872;9.226;2023-03-23T00:52:15;15.60;70.10
360;DHT22;168;48.872;9.226;2023-03-23T00:55:03;15.60;70.20
360;DHT22;168;48.872;9.226;2023-03-23T00:57:32;15.70;70.10
360;DHT22;168;48.872;9.226;2023-03-23T01:00:00;15.60;69.90
360;DHT22;168;48.872;9.226;2023-03-23T01:02:47;15.60;70.20
360;DHT22;168;48.872;9.226;2023-03-23T01:05:34;15.60;70.20
360;DHT22;168;48.872;9.226;2023-03-23T01:08:18;15.70;69.70
360;DHT22;168;48.872;9.226;2023-03-23T01:10:47;15.70;69.90
360;DHT22;168;48.872;9.226;2023-03-23T01:13:17;15.70;71.10
360;DHT22;168;48.872;9.226;2023-03-23T01:15:46;15.60;71.90
360;DHT22;168;48.872;9.226;2023-03-23T01:18:13;15.70;71.80
360;DHT22;168;48.872;9.226;2023-03-23T01:20:41;15.70;72.10
360;DHT22;168;48.872;9.226;2023-03-23T01:23:11;15.60;72.10
360;DHT22;168;48.872;9.226;2023-03-23T01:25:39;15.70;72.40
360;DHT22;168;48.872;9.226;2023-03-23T01:28:25;15.70;72.00
360;DHT22;168;48.872;9.226;2023-03-23T01:31:14;15.60;71.80
360;DHT22;168;48.872;9.226;2023-03-23T01:34:03;15.50;71.40
360;DHT22;168;48.872;9.226;2023-03-23T01:39:38;15.30;71.80
360;DHT22;168;48.872;9.226;2023-03-23T01:42:33;15.30;71.10
360;DHT22;168;48.872;9.226;2023-03-23T01:45:48;15.30;71.00
360;DHT22;168;48.872;9.226;2023-03-23T01:48:26;15.30;70.40
360;DHT22;168;48.872;9.226;2023-03-23T01:57:19;15.30;70.50
360;DHT22;168;48.872;9.226;2023-03-23T02:00:08;15.30;70.70
360;DHT22;168;48.872;9.226;2023-03-23T02:02:48;15.20;71.10
360;DHT22;168;48.872;9.226;2023-03-23T02:05:21;15.20;71.50
360;DHT22;168;48.872;9.226;2023-03-23T02:07:51;15.30;70.90
360;DHT22;168;48.872;9.226;2023-03-23T02:10:19;15.30;70.40
360;DHT22;168;48.872;9.226;2023-03-23T02:12:47;15.30;70.40
360;DHT22;168;48.872;9.226;2023-03-23T02:15:15;15.20;70.80
360;DHT22;168;48.872;9.226;2023-03-23T02:18:03;15.10;70.70
360;DHT22;168;48.872;9.226;2023-03-23T02:23:53;15.00;70.90
360;DHT22;168;48.872;9.226;2023-03-23T02:26:47;15.10;71.00
360;DHT22;168;48.872;9.226;2023-03-23T02:29:44;15.10;71.10
360;DHT22;168;48.872;9.226;2023-03-23T02:32:37;15.00;71.50
360;DHT22;168;48.872;9.226;2023-03-23T02:35:19;15.00;72.00
360;DHT22;168;48.872;9.226;2023-03-23T02:37:58;15.10;71.40
360;DHT22;168;48.872;9.226;2023-03-23T02:40:39;15.10;71.30
360;DHT22;168;48.872;9.226;2023-03-23T02:43:25;15.00;71.90
360;DHT22;168;48.872;9.226;2023-03-23T02:46:01;14.90;72.00
360;DHT22;168;48.872;9.226;2023-03-23T02:48:47;14.90;72.00
360;DHT22;168;48.872;9.226;2023-03-23T02:51:21;14.90;72.20
360;DHT22;168;48.872;9.226;2023-03-23T02:53:55;14.80;73.00
360;DHT22;168;48.872;9.226;2023-03-23T02:56:25;14.80;72.70
360;DHT22;168;48.872;9.226;2023-03-23T02:58:58;14.70;72.50
360;DHT22;168;48.872;9.226;2023-03-23T03:02:07;14.80;72.20
360;DHT22;168;48.872;9.226;2023-03-23T03:04:39;14.70;72.80
360;DHT22;168;48.872;9.226;2023-03-23T03:07:27;14.60;72.70
360;DHT22;168;48.872;9.226;2023-03-23T03:10:03;14.70;72.80
360;DHT22;168;48.872;9.226;2023-03-23T03:12:39;14.60;73.20
360;DHT22;168;48.872;9.226;2023-03-23T03:15:17;14.60;73.20
360;DHT22;168;48.872;9.226;2023-03-23T03:17:53;14.70;73.20
360;DHT22;168;48.872;9.226;2023-03-23T03:20:27;14.70;73.20
360;DHT22;168;48.872;9.226;2023-03-23T03:23:17;14.70;73.40
360;DHT22;168;48.872;9.226;2023-03-23T03:26:10;14.70;73.30
360;DHT22;168;48.872;9.226;2023-03-23T03:28:49;14.70;73.30
360;DHT22;168;48.872;9.226;2023-03-23T03:31:37;14.70;73.60
360;DHT22;168;48.872;9.226;2023-03-23T03:34:11;14.70;73.60
360;DHT22;168;48.872;9.226;2023-03-23T03:36:44;14.80;73.60
360;DHT22;168;48.872;9.226;2023-03-23T03:39:15;14.70;73.60
360;DHT22;168;48.872;9.226;2023-03-23T03:41:43;14.80;73.50
360;DHT22;168;48.872;9.226;2023-03-23T03:44:11;14.80;73.60
360;DHT22;168;48.872;9.226;2023-03-23T03:46:39;14.80;73.70
360;DHT22;168;48.872;9.226;2023-03-23T03:49:09;14.70;73.90
360;DHT22;168;48.872;9.226;2023-03-23T03:52:04;14.80;73.70
360;DHT22;168;48.872;9.226;2023-03-23T03:54:37;14.80;73.80
360;DHT22;168;48.872;9.226;2023-03-23T03:57:09;14.80;73.90
360;DHT22;168;48.872;9.226;2023-03-23T03:59:40;14.80;73.80
360;DHT22;168;48.872;9.226;2023-03-23T04:02:11;14.80;73.90
360;DHT22;168;48.872;9.226;2023-03-23T04:04:41;14.80;73.80
360;DHT22;168;48.872;9.226;2023-03-23T04:07:09;14.70;74.10
360;DHT22;168;48.872;9.226;2023-03-23T04:09:48;14.80;74.20
360;DHT22;168;48.872;9.226;2023-03-23T04:12:17;14.70;74.40
360;DHT22;168;48.872;9.226;2023-03-23T04:14:47;14.70;74.10
360;DHT22;168;48.872;9.226;2023-03-23T04:17:15;14.70;74.10
360;DHT22;168;48.872;9.226;2023-03-23T04:19:43;14.70;74.10
360;DHT22;168;48.872;9.226;2023-03-23T04:22:13;14.80;73.70
360;DHT22;168;48.872;9.226;2023-03-23T04:24:42;14.80;73.60
360;DHT22;168;48.872;9.226;2023-03-23T04:27:11;14.80;73.80
360;DHT22;168;48.872;9.226;2023-03-23T04:29:39;14.80;73.70
360;DHT22;168;48.872;9.226;2023-03-23T04:32:07;14.90;73.70
360;DHT22;168;48.872;9.226;2023-03-23T04:34:36;14.80;73.60
360;DHT22;168;48.872;9.226;2023-03-23T04:37:05;14.80;73.50
360;DHT22;168;48.872;9.226;2023-03-23T04:39:35;14.80;73.80
360;DHT22;168;48.872;9.226;2023-03-23T04:42:06;14.80;73.80
360;DHT22;168;48.872;9.226;2023-03-23T04:48:31;14.90;73.80
360;DHT22;168;48.872;9.226;2023-03-23T04:51:01;14.90;74.10
360;DHT22;168;48.872;9.226;2023-03-23T04:53:32;14.80;74.30
360;DHT22;168;48.872;9.226;2023-03-23T04:56:00;14.80;74.00
360;DHT22;168;48.872;9.226;2023-03-23T04:58:28;14.90;73.90
360;DHT22;168;48.872;9.226;2023-03-23T05:01:00;14.80;74.10
360;DHT22;168;48.872;9.226;2023-03-23T05:03:29;14.80;74.20
360;DHT22;168;48.872;9.226;2023-03-23T05:05:56;14.90;74.20
360;DHT22;168;48.872;9.226;2023-03-23T05:08:24;14.90;74.20
360;DHT22;168;48.872;9.226;2023-03-23T05:10:52;14.90;74.30
360;DHT22;168;48.872;9.226;2023-03-23T05:13:20;14.90;74.60
360;DHT22;168;48.872;9.226;2023-03-23T05:15:48;14.90;74.30
360;DHT22;168;48.872;9.226;2023-03-23T05:18:16;14.90;74.10
360;DHT22;168;48.872;9.226;2023-03-23T05:20:44;15.00;73.80
360;DHT22;168;48.872;9.226;2023-03-23T05:23:13;15.00;73.80
360;DHT22;168;48.872;9.226;2023-03-23T05:25:40;15.10;73.50
360;DHT22;168;48.872;9.226;2023-03-23T05:28:08;15.10;73.40
360;DHT22;168;48.872;9.226;2023-03-23T05:30:36;15.10;73.20
360;DHT22;168;48.872;9.226;2023-03-23T05:33:04;15.10;73.60
360;DHT22;168;48.872;9.226;2023-03-23T05:35:32;15.10;73.40
360;DHT22;168;48.872;9.226;2023-03-23T05:38:02;15.10;73.40
360;DHT22;168;48.872;9.226;2023-03-23T05:40:31;15.10;73.20
360;DHT22;168;48.872;9.226;2023-03-23T05:43:12;15.10;73.20
360;DHT22;168;48.872;9.226;2023-03-23T05:45:50;15.10;73.50
360;DHT22;168;48.872;9.226;2023-03-23T05:48:18;15.10;73.80
360;DHT22;168;48.872;9.226;2023-03-23T05:50:46;15.10;73.60
360;DHT22;168;48.872;9.226;2023-03-23T05:53:51;15.20;73.40
360;DHT22;168;48.872;9.226;2023-03-23T05:56:24;15.20;73.50
360;DHT22;168;48.872;9.226;2023-03-23T05:58:52;15.20;73.60
360;DHT22;168;48.872;9.226;2023-03-23T06:01:21;15.20;73.50
360;DHT22;168;48.872;9.226;2023-03-23T06:03:49;15.20;73.60
360;DHT22;168;48.872;9.226;2023-03-23T06:06:20;15.30;73.40
360;DHT22;168;48.872;9.226;2023-03-23T06:08:47;15.30;72.90
360;DHT22;168;48.872;9.226;2023-03-23T06:11:17;15.40;72.80
360;DHT22;168;48.872;9.226;2023-03-23T06:13:46;15.50;72.90
360;DHT22;168;48.872;9.226;2023-03-23T06:16:13;15.60;72.60
360;DHT22;168;48.872;9.226;2023-03-23T06:18:41;15.60;72.70
360;DHT22;168;48.872;9.226;2023-03-23T06:21:09;15.60;73.00
360;DHT22;168;48.872;9.226;2023-03-23T06:23:37;15.70;72.60
360;DHT22;168;48.872;9.226;2023-03-23T06:26:06;15.60;72.70
360;DHT22;168;48.872;9.226;2023-03-23T06:28:35;15.70;72.60
360;DHT22;168;48.872;9.226;2023-03-23T06:31:04;15.80;72.00
360;DHT22;168;48.872;9.226;2023-03-23T06:33:32;15.80;71.60
360;DHT22;168;48.872;9.226;2023-03-23T06:36:02;15.90;71.10
360;DHT22;168;48.872;9.226;2023-03-23T06:38:30;15.90;70.60
360;DHT22;168;48.872;9.226;2023-03-23T06:40:58;15.90;70.90
360;DHT22;168;48.872;9.226;2023-03-23T06:43:25;15.90;71.10
360;DHT22;168;48.872;9.226;2023-03-23T06:45:54;15.90;70.50
360;DHT22;168;48.872;9.226;2023-03-23T06:48:21;16.00;71.00
360;DHT22;168;48.872;9.226;2023-03-23T06:50:49;16.00;71.20
360;DHT22;168;48.872;9.226;2023-03-23T06:53:16;16.00;71.30
360;DHT22;168;48.872;9.226;2023-03-23T06:55:46;16.10;71.10
360;DHT22;168;48.872;9.226;2023-03-23T06:58:13;16.20;71.50
360;DHT22;168;48.872;9.226;2023-03-23T07:00:41;16.30;70.50
360;DHT22;168;48.872;9.226;2023-03-23T07:03:10;16.50;69.80
360;DHT22;168;48.872;9.226;2023-03-23T07:05:37;16.60;69.90
360;DHT22;168;48.872;9.226;2023-03-23T07:08:05;16.70;69.20
360;DHT22;168;48.872;9.226;2023-03-23T07:10:32;16.70;69.00
360;DHT22;168;48.872;9.226;2023-03-23T07:13:00;16.70;69.00
360;DHT22;168;48.872;9.226;2023-03-23T07:15:28;16.70;69.00
360;DHT22;168;48.872;9.226;2023-03-23T07:17:55;16.70;69.30
360;DHT22;168;48.872;9.226;2023-03-23T07:20:24;16.70;69.20
360;DHT22;168;48.872;9.226;2023-03-23T07:22:53;16.70;69.30
360;DHT22;168;48.872;9.226;2023-03-23T07:25:21;16.70;69.30
360;DHT22;168;48.872;9.226;2023-03-23T07:27:48;16.70;69.50
360;DHT22;168;48.872;9.226;2023-03-23T07:30:16;16.70;69.20
360;DHT22;168;48.872;9.226;2023-03-23T07:32:43;16.70;69.40
360;DHT22;168;48.872;9.226;2023-03-23T07:35:11;16.60;69.80
360;DHT22;168;48.872;9.226;2023-03-23T07:37:40;16.60;69.70
360;DHT22;168;48.872;9.226;2023-03-23T07:40:08;16.60;69.90
360;DHT22;168;48.872;9.226;2023-03-23T07:42:37;16.70;69.50
360;DHT22;168;48.872;9.226;2023-03-23T07:45:05;16.80;69.30
360;DHT22;168;48.872;9.226;2023-03-23T07:47:33;16.80;69.20
360;DHT22;168;48.872;9.226;2023-03-23T07:50:00;16.80;69.40
360;DHT22;168;48.872;9.226;2023-03-23T07:52:27;16.80;69.20
360;DHT22;168;48.872;9.226;2023-03-23T07:54:57;16.80;69.40
360;DHT22;168;48.872;9.226;2023-03-23T07:57:24;17.00;69.20
360;DHT22;168;48.872;9.226;2023-03-23T07:59:52;17.20;68.50
360;DHT22;168;48.872;9.226;2023-03-23T08:02:19;17.30;68.00
360;DHT22;168;48.872;9.226;2023-03-23T08:04:47;17.40;67.70
360;DHT22;168;48.872;9.226;2023-03-23T08:07:16;17.50;67.40
360;DHT22;168;48.872;9.226;2023-03-23T08:09:46;17.60;67.50
360;DHT22;168;48.872;9.226;2023-03-23T08:12:16;17.70;67.10
360;DHT22;168;48.872;9.226;2023-03-23T08:14:43;17.80;67.30
360;DHT22;168;48.872;9.226;2023-03-23T08:17:11;17.80;67.60
360;DHT22;168;48.872;9.226;2023-03-23T08:19:38;17.70;68.00
360;DHT22;168;48.872;9.226;2023-03-23T08:22:06;17.60;68.20
360;DHT22;168;48.872;9.226;2023-03-23T08:24:33;17.50;68.60
360;DHT22;168;48.872;9.226;2023-03-23T08:27:01;17.40;69.10
360;DHT22;168;48.872;9.226;2023-03-23T08:29:30;17.40;69.40
360;DHT22;168;48.872;9.226;2023-03-23T08:31:58;17.40;69.40
360;DHT22;168;48.872;9.226;2023-03-23T08:34:29;17.50;69.10
360;DHT22;168;48.872;9.226;2023-03-23T08:36:57;17.50;69.00
360;DHT22;168;48.872;9.226;2023-03-23T08:39:24;17.50;69.50
360;DHT22;168;48.872;9.226;2023-03-23T08:41:51;17.60;69.90
360;DHT22;168;48.872;9.226;2023-03-23T08:44:18;17.70;70.00
360;DHT22;168;48.872;9.226;2023-03-23T08:46:47;17.80;70.10
360;DHT22;168;48.872;9.226;2023-03-23T08:49:15;17.80;70.10
360;DHT22;168;48.872;9.226;2023-03-23T08:51:43;17.70;70.90
360;DHT22;168;48.872;9.226;2023-03-23T08:54:10;17.60;71.60
360;DHT22;168;48.872;9.226;2023-03-23T08:56:38;17.50;71.90
360;DHT22;168;48.872;9.226;2023-03-23T08:59:05;17.40;72.20
360;DHT22;168;48.872;9.226;2023-03-23T09:01:32;17.30;72.70
360;DHT22;168;48.872;9.226;2023-03-23T09:04:01;17.30;72.60
360;DHT22;168;48.872;9.226;2023-03-23T09:06:30;17.30;73.20
360;DHT22;168;48.872;9.226;2023-03-23T09:08:59;17.20;73.50
360;DHT22;168;48.872;9.226;2023-03-23T09:11:33;17.10;73.60
360;DHT22;168;48.872;9.226;2023-03-23T09:14:01;17.00;74.30
360;DHT22;168;48.872;9.226;2023-03-23T09:16:28;16.90;74.70
360;DHT22;168;48.872;9.226;2023-03-23T09:18:55;16.80;75.10
360;DHT22;168;48.872;9.226;2023-03-23T09:21:26;16.80;75.60
360;DHT22;168;48.872;9.226;2023-03-23T09:23:53;16.80;75.90
360;DHT22;168;48.872;9.226;2023-03-23T09:26:24;16.90;75.70
360;DHT22;168;48.872;9.226;2023-03-23T09:28:52;16.80;76.10
360;DHT22;168;48.872;9.226;2023-03-23T09:31:19;16.80;76.30
360;DHT22;168;48.872;9.226;2023-03-23T09:33:48;16.90;76.00
360;DHT22;168;48.872;9.226;2023-03-23T09:36:17;17.00;75.70
360;DHT22;168;48.872;9.226;2023-03-23T09:38:48;17.00;75.80
360;DHT22;168;48.872;9.226;2023-03-23T09:41:36;17.00;75.40
360;DHT22;168;48.872;9.226;2023-03-23T09:44:12;17.00;75.80
360;DHT22;168;48.872;9.226;2023-03-23T09:46:51;17.20;75.10
360;DHT22;168;48.872;9.226;2023-03-23T09:49:23;17.30;74.60
360;DHT22;168;48.872;9.226;2023-03-23T09:51:54;17.40;74.50
360;DHT22;168;48.872;9.226;2023-03-23T09:54:27;17.40;74.20
360;DHT22;168;48.872;9.226;2023-03-23T09:56:55;17.30;74.50
360;DHT22;168;48.872;9.226;2023-03-23T09:59:27;17.40;74.50
360;DHT22;168;48.872;9.226;2023-03-23T10:02:08;17.40;74.40
360;DHT22;168;48.872;9.226;2023-03-23T10:04:43;17.50;74.30
360;DHT22;168;48.872;9.226;2023-03-23T10:07:13;17.50;74.30
360;DHT22;168;48.872;9.226;2023-03-23T10:09:45;17.60;73.90
360;DHT22;168;48.872;9.226;2023-03-23T10:12:27;17.50;74.10
360;DHT22;168;48.872;9.226;2023-03-23T10:15:07;17.40;74.90
360;DHT22;168;48.872;9.226;2023-03-23T10:17:42;17.30;75.60
360;DHT22;168;48.872;9.226;2023-03-23T10:20:21;17.20;76.60
360;DHT22;168;48.872;9.226;2023-03-23T10:22:55;17.20;77.30
360;DHT22;168;48.872;9.226;2023-03-23T10:25:29;17.00;78.10
360;DHT22;168;48.872;9.226;2023-03-23T10:28:01;16.90;78.90
360;DHT22;168;48.872;9.226;2023-03-23T10:30:33;17.00;78.90
360;DHT22;168;48.872;9.226;2023-03-23T10:33:03;17.00;79.00
360;DHT22;168;48.872;9.226;2023-03-23T10:35:35;17.00;78.60
360;DHT22;168;48.872;9.226;2023-03-23T10:38:06;17.10;78.50
360;DHT22;168;48.872;9.226;2023-03-23T10:40:45;17.30;78.60
360;DHT22;168;48.872;9.226;2023-03-23T10:43:14;17.40;76.60
360;DHT22;168;48.872;9.226;2023-03-23T10:45:44;17.50;77.00
360;DHT22;168;48.872;9.226;2023-03-23T10:48:16;17.50;76.70
360;DHT22;168;48.872;9.226;2023-03-23T10:50:50;17.40;77.60
360;DHT22;168;48.872;9.226;2023-03-23T10:53:21;17.20;78.10
360;DHT22;168;48.872;9.226;2023-03-23T10:55:50;17.00;79.00
360;DHT22;168;48.872;9.226;2023-03-23T10:58:23;16.90;79.20
360;DHT22;168;48.872;9.226;2023-03-23T11:00:51;16.80;79.80
360;DHT22;168;48.872;9.226;2023-03-23T11:03:25;17.00;80.20
360;DHT22;168;48.872;9.226;2023-03-23T11:05:56;17.20;79.80
360;DHT22;168;48.872;9.226;2023-03-23T11:08:27;17.40;78.90
360;DHT22;168;48.872;9.226;2023-03-23T11:11:07;17.20;79.40
360;DHT22;168;48.872;9.226;2023-03-23T11:13:40;17.20;79.80
360;DHT22;168;48.872;9.226;2023-03-23T11:16:10;17.20;79.90
360;DHT22;168;48.872;9.226;2023-03-23T11:18:39;17.40;80.00
360;DHT22;168;48.872;9.226;2023-03-23T11:21:07;17.60;79.90
360;DHT22;168;48.872;9.226;2023-03-23T11:23:38;17.60;80.40
360;DHT22;168;48.872;9.226;2023-03-23T11:26:15;17.40;80.30
360;DHT22;168;48.872;9.226;2023-03-23T11:28:46;17.40;81.00
360;DHT22;168;48.872;9.226;2023-03-23T11:31:16;17.30;80.50
360;DHT22;168;48.872;9.226;2023-03-23T11:33:52;17.10;81.00
360;DHT22;168;48.872;9.226;2023-03-23T11:36:20;17.00;81.80
360;DHT22;168;48.872;9.226;2023-03-23T11:38:53;17.10;81.80
360;DHT22;168;48.872;9.226;2023-03-23T11:41:34;17.30;81.30
360;DHT22;168;48.872;9.226;2023-03-23T11:44:09;17.60;80.10
360;DHT22;168;48.872;9.226;2023-03-23T11:46:44;17.80;79.20
360;DHT22;168;48.872;9.226;2023-03-23T11:49:22;17.80;78.40
360;DHT22;168;48.872;9.226;2023-03-23T11:51:55;17.80;78.50
360;DHT22;168;48.872;9.226;2023-03-23T11:54:29;17.90;78.30
360;DHT22;168;48.872;9.226;2023-03-23T11:56:59;18.10;78.00
360;DHT22;168;48.872;9.226;2023-03-23T11:59:28;18.30;77.00
360;DHT22;168;48.872;9.226;2023-03-23T12:02:10;18.30;77.00
360;DHT22;168;48.872;9.226;2023-03-23T12:04:57;18.40;77.70
360;DHT22;168;48.872;9.226;2023-03-23T12:07:49;18.50;77.30
360;DHT22;168;48.872;9.226;2023-03-23T12:10:25;18.40;77.20
360;DHT22;168;48.872;9.226;2023-03-23T12:13:06;18.20;78.40
360;DHT22;168;48.872;9.226;2023-03-23T12:15:43;18.10;78.40
360;DHT22;168;48.872;9.226;2023-03-23T12:18:19;18.00;79.30
360;DHT22;168;48.872;9.226;2023-03-23T12:21:00;18.10;78.80
360;DHT22;168;48.872;9.226;2023-03-23T12:23:36;18.10;78.90
360;DHT22;168;48.872;9.226;2023-03-23T12:26:24;18.20;78.70
360;DHT22;168;48.872;9.226;2023-03-23T12:29:08;18.20;77.60
360;DHT22;168;48.872;9.226;2023-03-23T12:31:45;18.20;77.60
360;DHT22;168;48.872;9.226;2023-03-23T12:34:20;18.30;76.70
360;DHT22;168;48.872;9.226;2023-03-23T12:37:01;18.20;76.90
360;DHT22;168;48.872;9.226;2023-03-23T12:42:49;18.30;79.30
360;DHT22;168;48.872;9.226;2023-03-23T12:45:25;18.40;78.40
360;DHT22;168;48.872;9.226;2023-03-23T12:47:57;18.40;78.60
360;DHT22;168;48.872;9.226;2023-03-23T12:50:30;18.60;78.30
360;DHT22;168;48.872;9.226;2023-03-23T12:53:04;18.70;77.20
360;DHT22;168;48.872;9.226;2023-03-23T12:55:37;18.70;79.10
360;DHT22;168;48.872;9.226;2023-03-23T12:58:10;18.50;80.20
360;DHT22;168;48.872;9.226;2023-03-23T13:00:54;18.40;81.10
360;DHT22;168;48.872;9.226;2023-03-23T13:03:27;18.50;79.50
360;DHT22;168;48.872;9.226;2023-03-23T13:06:03;18.50;79.70
360;DHT22;168;48.872;9.226;2023-03-23T13:08:35;18.50;80.00
360;DHT22;168;48.872;9.226;2023-03-23T13:11:08;18.40;80.70
360;DHT22;168;48.872;9.226;2023-03-23T13:13:47;18.50;80.40
360;DHT22;168;48.872;9.226;2023-03-23T13:16:26;18.60;80.20
360;DHT22;168;48.872;9.226;2023-03-23T13:19:03;18.50;80.30
360;DHT22;168;48.872;9.226;2023-03-23T13:21:38;18.40;80.60
360;DHT22;168;48.872;9.226;2023-03-23T13:24:12;18.50;80.70
360;DHT22;168;48.872;9.226;2023-03-23T13:26:41;18.80;80.00
360;DHT22;168;48.872;9.226;2023-03-23T13:29:12;19.10;79.50
360;DHT22;168;48.872;9.226;2023-03-23T13:31:42;19.40;75.00
360;DHT22;168;48.872;9.226;2023-03-23T13:34:16;19.70;74.50
360;DHT22;168;48.872;9.226;2023-03-23T13:36:52;19.80;74.70
360;DHT22;168;48.872;9.226;2023-03-23T13:39:22;20.00;73.60
360;DHT22;168;48.872;9.226;2023-03-23T13:42:01;20.00;73.40
360;DHT22;168;48.872;9.226;2023-03-23T13:44:42;19.80;73.60
360;DHT22;168;48.872;9.226;2023-03-23T13:47:25;19.70;74.00
360;DHT22;168;48.872;9.226;2023-03-23T13:49:55;19.40;74.50
360;DHT22;168;48.872;9.226;2023-03-23T13:52:35;19.30;75.50
360;DHT22;168;48.872;9.226;2023-03-23T13:55:30;19.30;75.30
360;DHT22;168;48.872;9.226;2023-03-23T13:58:09;19.40;75.20
360;DHT22;168;48.872;9.226;2023-03-23T14:00:46;19.40;73.10
360;DHT22;168;48.872;9.226;2023-03-23T14:03:19;19.40;74.20
360;DHT22;168;48.872;9.226;2023-03-23T14:06:00;19.40;74.90
360;DHT22;168;48.872;9.226;2023-03-23T14:08:38;19.30;75.40
360;DHT22;168;48.872;9.226;2023-03-23T14:11:15;19.30;75.30
360;DHT22;168;48.872;9.226;2023-03-23T14:13:46;19.30;76.20
360;DHT22;168;48.872;9.226;2023-03-23T14:16:17;19.40;75.40
360;DHT22;168;48.872;9.226;2023-03-23T14:18:55;19.50;74.20
360;DHT22;168;48.872;9.226;2023-03-23T14:21:33;19.60;74.60
360;DHT22;168;48.872;9.226;2023-03-23T14:24:02;19.60;74.70
360;DHT22;168;48.872;9.226;2023-03-23T14:26:33;19.50;77.30
360;DHT22;168;48.872;9.226;2023-03-23T14:29:03;19.50;78.50
360;DHT22;168;48.872;9.226;2023-03-23T14:31:30;19.70;77.80
360;DHT22;168;48.872;9.226;2023-03-23T14:34:02;19.70;77.40
360;DHT22;168;48.872;9.226;2023-03-23T14:36:31;19.80;76.80
360;DHT22;168;48.872;9.226;2023-03-23T14:39:02;19.80;75.90
360;DHT22;168;48.872;9.226;2023-03-23T14:41:32;19.70;76.60
360;DHT22;168;48.872;9.226;2023-03-23T14:44:02;19.80;76.00
360;DHT22;168;48.872;9.226;2023-03-23T14:46:30;19.60;76.30
360;DHT22;168;48.872;9.226;2023-03-23T14:49:02;19.60;77.10
360;DHT22;168;48.872;9.226;2023-03-23T14:51:30;19.60;76.90
360;DHT22;168;48.872;9.226;2023-03-23T14:53:59;19.60;76.40
360;DHT22;168;48.872;9.226;2023-03-23T14:56:33;19.50;77.20
360;DHT22;168;48.872;9.226;2023-03-23T14:59:04;19.40;78.10
360;DHT22;168;48.872;9.226;2023-03-23T15:01:34;19.40;79.10
360;DHT22;168;48.872;9.226;2023-03-23T15:04:06;19.40;78.80
360;DHT22;168;48.872;9.226;2023-03-23T15:06:37;19.40;79.20
360;DHT22;168;48.872;9.226;2023-03-23T15:09:10;19.40;79.60
360;DHT22;168;48.872;9.226;2023-03-23T15:11:39;19.40;79.50
360;DHT22;168;48.872;9.226;2023-03-23T15:14:10;19.40;79.10
360;DHT22;168;48.872;9.226;2023-03-23T15:16:45;19.50;77.80
360;DHT22;168;48.872;9.226;2023-03-23T15:19:17;19.40;77.10
360;DHT22;168;48.872;9.226;2023-03-23T15:21:51;19.10;78.60
360;DHT22;168;48.872;9.226;2023-03-23T15:24:32;19.20;75.90
360;DHT22;168;48.872;9.226;2023-03-23T15:27:11;19.20;78.60
360;DHT22;168;48.872;9.226;2023-03-23T15:29:50;19.10;78.50
360;DHT22;168;48.872;9.226;2023-03-23T15:32:22;19.00;70.60
360;DHT22;168;48.872;9.226;2023-03-23T15:34:52;19.00;68.30
360;DHT22;168;48.872;9.226;2023-03-23T15:37:23;18.80;67.70
360;DHT22;168;48.872;9.226;2023-03-23T15:39:52;18.70;67.10
360;DHT22;168;48.872;9.226;2023-03-23T15:42:23;18.70;67.20
360;DHT22;168;48.872;9.226;2023-03-23T15:45:03;18.60;67.60
360;DHT22;168;48.872;9.226;2023-03-23T15:47:35;18.50;68.00
360;DHT22;168;48.872;9.226;2023-03-23T15:50:12;18.60;67.10
360;DHT22;168;48.872;9.226;2023-03-23T15:52:40;18.60;66.90
360;DHT22;168;48.872;9.226;2023-03-23T15:55:35;18.50;66.70
360;DHT22;168;48.872;9.226;2023-03-23T15:58:09;18.50;66.60
360;DHT22;168;48.872;9.226;2023-03-23T16:00:37;18.50;66.70
360;DHT22;168;48.872;9.226;2023-03-23T16:03:07;18.50;66.80
360;DHT22;168;48.872;9.226;2023-03-23T16:05:37;18.60;66.40
360;DHT22;168;48.872;9.226;2023-03-23T16:08:07;18.60;65.90
360;DHT22;168;48.872;9.226;2023-03-23T16:10:34;18.50;66.20
360;DHT22;168;48.872;9.226;2023-03-23T16:13:02;18.50;65.80
360;DHT22;168;48.872;9.226;2023-03-23T16:15:31;18.40;66.10
360;DHT22;168;48.872;9.226;2023-03-23T16:17:58;18.50;65.80
360;DHT22;168;48.872;9.226;2023-03-23T16:20:28;18.40;65.70
360;DHT22;168;48.872;9.226;2023-03-23T16:22:58;18.50;65.60
360;DHT22;168;48.872;9.226;2023-03-23T16:25:26;18.50;66.20
360;DHT22;168;48.872;9.226;2023-03-23T16:31:24;18.50;66.40
360;DHT22;168;48.872;9.226;2023-03-23T16:33:51;18.60;66.50
360;DHT22;168;48.872;9.226;2023-03-23T16:36:18;18.60;66.70
360;DHT22;168;48.872;9.226;2023-03-23T16:38:47;18.60;66.60
360;DHT22;168;48.872;9.226;2023-03-23T16:41:15;18.50;67.60
360;DHT22;168;48.872;9.226;2023-03-23T16:43:43;18.40;68.80
360;DHT22;168;48.872;9.226;2023-03-23T16:46:11;18.30;69.20
360;DHT22;168;48.872;9.226;2023-03-23T16:48:39;18.30;70.00
360;DHT22;168;48.872;9.226;2023-03-23T16:51:06;18.30;70.10
360;DHT22;168;48.872;9.226;2023-03-23T16:53:34;18.20;70.10
360;DHT22;168;48.872;9.226;2023-03-23T16:56:03;18.20;69.60
360;DHT22;168;48.872;9.226;2023-03-23T16:58:31;18.20;69.90
360;DHT22;168;48.872;9.226;2023-03-23T17:01:00;18.10;69.40
360;DHT22;168;48.872;9.226;2023-03-23T17:03:28;18.00;69.30
360;DHT22;168;48.872;9.226;2023-03-23T17:06:05;18.00;68.90
360;DHT22;168;48.872;9.226;2023-03-23T17:08:39;17.90;68.80
360;DHT22;168;48.872;9.226;2023-03-23T17:11:19;17.90;68.70
360;DHT22;168;48.872;9.226;2023-03-23T17:13:47;17.90;68.90
360;DHT22;168;48.872;9.226;2023-03-23T17:16:15;17.80;69.20
360;DHT22;168;48.872;9.226;2023-03-23T17:18:43;17.80;69.00
360;DHT22;168;48.872;9.226;2023-03-23T17:21:10;17.80;68.80
360;DHT22;168;48.872;9.226;2023-03-23T17:23:38;17.70;69.40
360;DHT22;168;48.872;9.226;2023-03-23T17:26:05;17.70;69.20
360;DHT22;168;48.872;9.226;2023-03-23T17:28:34;17.70;69.60
360;DHT22;168;48.872;9.226;2023-03-23T17:31:02;17.70;70.80
360;DHT22;168;48.872;9.226;2023-03-23T17:33:32;17.70;70.50
360;DHT22;168;48.872;9.226;2023-03-23T17:36:00;17.70;70.00
360;DHT22;168;48.872;9.226;2023-03-23T17:38:28;17.70;70.10